createdAt,value
2024-02-06T00:00:31.887Z,87.79
2024-02-06T00:01:32.019Z,87.49
2024-02-06T00:02:31.865Z,87.59
2024-02-06T00:03:31.869Z,88.00
2024-02-06T00:04:31.995Z,87.79
2024-02-06T00:05:31.864Z,87.79
2024-02-06T00:06:31.866Z,88.00
2024-02-06T00:07:35.696Z,87.90
2024-02-06T00:08:31.866Z,87.70
2024-02-06T00:09:31.782Z,87.59
2024-02-06T00:10:31.861Z,87.90
2024-02-06T00:11:31.755Z,87.90
2024-02-06T00:12:31.769Z,87.79
2024-02-06T00:13:31.824Z,87.59
2024-02-06T00:14:31.755Z,87.79
2024-02-06T00:15:31.759Z,87.79
2024-02-06T00:16:31.888Z,87.70
2024-02-06T00:17:31.757Z,88.00
2024-02-06T00:18:31.678Z,87.90
2024-02-06T00:19:31.737Z,87.90
2024-02-06T00:20:31.799Z,87.59
2024-02-06T00:21:31.664Z,87.59
2024-02-06T00:22:31.772Z,87.70
2024-02-06T00:23:31.621Z,87.70
2024-02-06T00:24:31.626Z,87.70
2024-02-06T00:25:31.642Z,87.59
2024-02-06T00:26:31.599Z,87.70
2024-02-06T00:27:31.578Z,87.59
2024-02-06T00:28:31.770Z,87.70
2024-02-06T00:29:31.560Z,87.70
2024-02-06T00:30:31.573Z,87.70
2024-02-06T00:31:31.617Z,87.59
2024-02-06T00:32:31.619Z,87.90
2024-02-06T00:33:31.553Z,88.21
2024-02-06T00:34:31.616Z,87.32
2024-02-06T00:35:31.491Z,88.21
2024-02-06T00:36:31.478Z,88.21
2024-02-06T00:37:31.522Z,88.00
2024-02-06T00:38:31.467Z,88.04
2024-02-06T00:39:31.447Z,88.04
2024-02-06T00:40:31.494Z,87.43
2024-02-06T00:41:31.422Z,87.53
2024-02-06T00:42:31.413Z,87.53
2024-02-06T00:43:31.493Z,87.63
2024-02-06T00:44:31.388Z,87.43
2024-02-06T00:45:31.392Z,87.32
2024-02-06T00:46:31.488Z,86.91
2024-02-06T00:47:31.390Z,86.85
2024-02-06T00:48:31.603Z,86.85
2024-02-06T00:49:31.438Z,86.95
2024-02-06T00:50:31.563Z,87.05
2024-02-06T00:51:31.310Z,87.16
2024-02-06T00:52:31.412Z,87.16
2024-02-06T00:53:31.343Z,86.85
2024-02-06T00:54:31.277Z,87.20
2024-02-06T00:55:31.320Z,86.79
2024-02-06T00:56:31.258Z,86.89
2024-02-06T00:57:31.264Z,86.68
2024-02-06T00:58:31.325Z,86.21
2024-02-06T00:59:31.220Z,86.93
2024-02-06T01:00:31.206Z,86.62
2024-02-06T01:01:31.259Z,86.72
2024-02-06T01:02:31.215Z,86.72
2024-02-06T01:03:31.208Z,87.04
2024-02-06T01:04:31.336Z,87.04
2024-02-06T01:05:31.149Z,87.07
2024-02-06T01:06:31.167Z,87.28
2024-02-06T01:07:31.199Z,87.38
2024-02-06T01:08:31.191Z,87.49
2024-02-06T01:09:31.114Z,87.59
2024-02-06T01:10:31.417Z,87.49
2024-02-06T01:11:31.079Z,87.79
2024-02-06T01:12:31.067Z,88.31
2024-02-06T01:13:31.136Z,88.00
2024-02-06T01:14:31.053Z,88.20
2024-02-06T01:15:31.037Z,88.10
2024-02-06T01:16:31.088Z,87.94
2024-02-06T01:17:31.034Z,87.94
2024-02-06T01:18:31.078Z,87.84
2024-02-06T01:19:31.166Z,88.14
2024-02-06T01:20:30.972Z,88.14
2024-02-06T01:21:30.964Z,88.04
2024-02-06T01:22:31.005Z,87.94
2024-02-06T01:23:30.963Z,87.94
2024-02-06T01:24:30.935Z,87.94
2024-02-06T01:25:31.199Z,88.24
2024-02-06T01:26:30.924Z,87.73
2024-02-06T01:27:30.943Z,87.98
2024-02-06T01:28:31.090Z,87.94
2024-02-06T01:29:30.877Z,87.84
2024-02-06T01:30:30.865Z,88.18
2024-02-06T01:31:30.940Z,87.98
2024-02-06T01:32:30.916Z,87.87
2024-02-06T01:33:31.015Z,87.87
2024-02-06T01:34:30.909Z,87.98
2024-02-06T01:35:30.805Z,88.18
2024-02-06T01:36:30.798Z,88.08
2024-02-06T01:37:30.972Z,88.08
2024-02-06T01:38:30.852Z,88.29
2024-02-06T01:39:30.787Z,87.87
2024-02-06T01:40:30.792Z,87.98
2024-02-06T01:41:30.795Z,87.98
2024-02-06T01:42:30.772Z,87.98
2024-02-06T01:43:30.828Z,87.87
2024-02-06T01:44:30.753Z,87.98
2024-02-06T01:45:30.750Z,87.98
2024-02-06T01:46:30.827Z,87.98
2024-02-06T01:47:30.715Z,87.98
2024-02-06T01:48:30.887Z,88.08
2024-02-06T01:49:30.929Z,87.87
2024-02-06T01:50:30.789Z,88.18
2024-02-06T01:51:30.627Z,88.08
2024-02-06T01:52:31.008Z,88.08
2024-02-06T01:53:30.611Z,88.08
2024-02-06T01:54:30.629Z,87.57
2024-02-06T01:55:30.604Z,87.57
2024-02-06T01:56:30.599Z,87.57
2024-02-06T01:57:30.565Z,88.18
2024-02-06T01:58:30.690Z,88.08
2024-02-06T01:59:30.584Z,88.29
2024-02-06T02:00:30.572Z,87.87
2024-02-06T02:01:30.647Z,88.18
2024-02-06T02:02:30.515Z,87.87
2024-02-06T02:03:30.527Z,88.29
2024-02-06T02:04:30.668Z,88.49
2024-02-06T02:05:30.756Z,87.77
2024-02-06T02:06:30.560Z,87.87
2024-02-06T02:07:30.527Z,87.57
2024-02-06T02:08:30.503Z,87.36
2024-02-06T02:09:30.469Z,87.36
2024-02-06T02:10:30.466Z,87.15
2024-02-06T02:11:30.409Z,87.05
2024-02-06T02:12:30.399Z,86.95
2024-02-06T02:13:30.407Z,87.40
2024-02-06T02:14:30.394Z,87.30
2024-02-06T02:15:30.372Z,86.99
2024-02-06T02:16:30.453Z,86.88
2024-02-06T02:17:30.377Z,86.88
2024-02-06T02:18:30.444Z,86.99
2024-02-06T02:19:30.414Z,87.09
2024-02-06T02:20:30.310Z,87.30
2024-02-06T02:21:30.299Z,87.19
2024-02-06T02:22:30.476Z,87.30
2024-02-06T02:23:30.443Z,86.99
2024-02-06T02:24:30.263Z,87.24
2024-02-06T02:25:30.365Z,87.13
2024-02-06T02:26:30.253Z,87.24
2024-02-06T02:27:30.225Z,87.13
2024-02-06T02:28:30.320Z,87.13
2024-02-06T02:29:30.202Z,87.13
2024-02-06T02:30:30.194Z,87.65
2024-02-06T02:31:30.205Z,87.69
2024-02-06T02:32:30.184Z,87.75
2024-02-06T02:33:30.284Z,87.59
2024-02-06T02:34:30.336Z,87.90
2024-02-06T02:35:30.138Z,88.62
2024-02-06T02:36:30.124Z,88.62
2024-02-06T02:37:30.200Z,87.79
2024-02-06T02:38:30.203Z,88.20
2024-02-06T02:39:30.133Z,88.20
2024-02-06T02:40:30.156Z,88.62
2024-02-06T02:41:30.069Z,88.62
2024-02-06T02:42:30.074Z,88.20
2024-02-06T02:43:30.103Z,88.20
2024-02-06T02:44:30.035Z,88.20
2024-02-06T02:45:30.180Z,88.20
2024-02-06T02:46:30.088Z,87.90
2024-02-06T02:47:30.022Z,87.99
2024-02-06T02:48:30.045Z,87.79
2024-02-06T02:49:30.050Z,87.48
2024-02-06T02:50:29.977Z,87.79
2024-02-06T02:51:29.978Z,87.38
2024-02-06T02:52:30.040Z,87.27
2024-02-06T02:53:29.929Z,87.07
2024-02-06T02:54:29.973Z,86.70
2024-02-06T02:55:29.987Z,87.21
2024-02-06T02:56:29.900Z,87.11
2024-02-06T02:57:29.885Z,87.01
2024-02-06T02:58:29.914Z,87.11
2024-02-06T02:59:29.866Z,87.01
2024-02-06T03:00:29.857Z,86.60
2024-02-06T03:01:29.940Z,86.80
2024-02-06T03:02:29.861Z,86.80
2024-02-06T03:03:29.844Z,86.84
2024-02-06T03:04:29.930Z,87.15
2024-02-06T03:05:29.932Z,87.35
2024-02-06T03:06:29.818Z,87.19
2024-02-06T03:07:29.864Z,87.35
2024-02-06T03:08:29.764Z,87.15
2024-02-06T03:09:29.770Z,86.94
2024-02-06T03:10:29.827Z,86.98
2024-02-06T03:11:29.729Z,86.88
2024-02-06T03:12:29.720Z,86.98
2024-02-06T03:13:29.781Z,86.88
2024-02-06T03:14:29.697Z,87.19
2024-02-06T03:15:29.711Z,87.29
2024-02-06T03:16:29.858Z,87.19
2024-02-06T03:17:29.673Z,87.23
2024-02-06T03:18:29.710Z,87.34
2024-02-06T03:19:29.732Z,87.44
2024-02-06T03:20:29.641Z,87.44
2024-02-06T03:21:29.623Z,87.34
2024-02-06T03:22:29.843Z,87.13
2024-02-06T03:23:29.606Z,87.23
2024-02-06T03:24:29.588Z,87.34
2024-02-06T03:25:29.640Z,87.13
2024-02-06T03:26:29.592Z,87.27
2024-02-06T03:27:29.567Z,87.23
2024-02-06T03:28:29.599Z,87.44
2024-02-06T03:29:29.524Z,87.23
2024-02-06T03:30:29.515Z,87.65
2024-02-06T03:31:29.614Z,87.13
2024-02-06T03:32:29.504Z,87.34
2024-02-06T03:33:29.643Z,87.48
2024-02-06T03:34:29.573Z,87.44
2024-02-06T03:35:29.497Z,87.17
2024-02-06T03:36:29.446Z,87.17
2024-02-06T03:37:29.471Z,87.48
2024-02-06T03:38:29.432Z,87.37
2024-02-06T03:39:29.418Z,87.37
2024-02-06T03:40:29.520Z,87.27
2024-02-06T03:41:29.392Z,87.17
2024-02-06T03:42:29.435Z,87.17
2024-02-06T03:43:29.459Z,87.48
2024-02-06T03:44:29.427Z,87.17
2024-02-06T03:45:29.342Z,87.37
2024-02-06T03:46:29.352Z,87.17
2024-02-06T03:47:29.360Z,87.58
2024-02-06T03:48:29.532Z,87.73
2024-02-06T03:49:29.407Z,87.48
2024-02-06T03:50:29.284Z,87.48
2024-02-06T03:51:29.276Z,87.48
2024-02-06T03:52:29.376Z,87.68
2024-02-06T03:53:29.251Z,87.62
2024-02-06T03:54:29.254Z,87.37
2024-02-06T03:55:29.275Z,87.17
2024-02-06T03:56:29.238Z,87.48
2024-02-06T03:57:29.224Z,87.21
2024-02-06T03:58:29.295Z,87.52
2024-02-06T03:59:29.182Z,87.52
2024-02-06T04:00:29.175Z,87.52
2024-02-06T04:01:29.275Z,86.90
2024-02-06T04:02:29.159Z,87.31
2024-02-06T04:03:29.195Z,86.90
2024-02-06T04:04:29.181Z,87.41
2024-02-06T04:05:29.116Z,87.41
2024-02-06T04:06:29.118Z,87.52
2024-02-06T04:07:29.212Z,87.56
2024-02-06T04:08:29.082Z,87.41
2024-02-06T04:09:29.080Z,87.41
2024-02-06T04:10:29.105Z,87.21
2024-02-06T04:11:29.046Z,86.94
2024-02-06T04:12:29.045Z,87.25
2024-02-06T04:13:29.069Z,87.46
2024-02-06T04:14:29.042Z,87.00
2024-02-06T04:15:29.044Z,87.41
2024-02-06T04:16:29.047Z,87.25
2024-02-06T04:17:29.077Z,87.25
2024-02-06T04:18:29.155Z,87.25
2024-02-06T04:19:29.159Z,87.46
2024-02-06T04:20:28.950Z,87.04
2024-02-06T04:21:28.942Z,87.15
2024-02-06T04:22:29.087Z,87.25
2024-02-06T04:23:28.924Z,87.04
2024-02-06T04:24:28.906Z,87.35
2024-02-06T04:25:29.032Z,87.39
2024-02-06T04:26:28.876Z,87.46
2024-02-06T04:27:28.886Z,87.46
2024-02-06T04:28:28.956Z,87.49
2024-02-06T04:29:28.864Z,86.98
2024-02-06T04:30:28.856Z,87.29
2024-02-06T04:31:28.913Z,87.29
2024-02-06T04:32:28.933Z,87.18
2024-02-06T04:33:28.909Z,87.29
2024-02-06T04:34:28.927Z,87.08
2024-02-06T04:35:28.773Z,87.12
2024-02-06T04:36:28.769Z,87.08
2024-02-06T04:37:28.792Z,87.18
2024-02-06T04:38:28.759Z,87.43
2024-02-06T04:39:28.730Z,87.12
2024-02-06T04:40:28.876Z,87.12
2024-02-06T04:41:28.752Z,87.23
2024-02-06T04:42:28.696Z,87.23
2024-02-06T04:43:28.749Z,87.23
2024-02-06T04:44:28.676Z,87.23
2024-02-06T04:45:28.709Z,87.33
2024-02-06T04:46:28.892Z,87.33
2024-02-06T04:47:28.681Z,87.33
2024-02-06T04:48:28.674Z,87.23
2024-02-06T04:49:28.891Z,87.33
2024-02-06T04:50:28.631Z,87.43
2024-02-06T04:51:28.615Z,87.23
2024-02-06T04:52:28.636Z,87.23
2024-02-06T04:53:28.571Z,87.33
2024-02-06T04:54:28.562Z,87.23
2024-02-06T04:55:28.600Z,87.27
2024-02-06T04:56:28.535Z,87.33
2024-02-06T04:57:28.525Z,87.16
2024-02-06T04:58:28.639Z,87.47
2024-02-06T04:59:28.503Z,87.68
2024-02-06T05:00:28.534Z,87.06
2024-02-06T05:01:28.588Z,87.47
2024-02-06T05:02:28.568Z,87.68
2024-02-06T05:03:28.503Z,87.37
2024-02-06T05:04:28.537Z,87.16
2024-02-06T05:05:28.448Z,87.16
2024-02-06T05:06:28.484Z,87.27
2024-02-06T05:07:28.551Z,87.27
2024-02-06T05:08:30.923Z,87.27
2024-02-06T05:09:28.409Z,87.41
2024-02-06T05:10:28.448Z,87.72
2024-02-06T05:11:28.369Z,87.47
2024-02-06T05:12:28.368Z,87.41
2024-02-06T05:13:28.442Z,87.41
2024-02-06T05:14:28.337Z,87.37
2024-02-06T05:15:28.324Z,87.06
2024-02-06T05:16:28.407Z,86.96
2024-02-06T05:17:28.407Z,86.85
2024-02-06T05:18:28.501Z,87.57
2024-02-06T05:19:28.293Z,87.37
2024-02-06T05:20:28.278Z,87.57
2024-02-06T05:21:28.259Z,87.37
2024-02-06T05:22:28.445Z,87.57
2024-02-06T05:23:28.240Z,87.27
2024-02-06T05:24:28.220Z,87.47
2024-02-06T05:25:28.290Z,87.27
2024-02-06T05:26:28.220Z,87.27
2024-02-06T05:27:28.208Z,87.37
2024-02-06T05:28:28.236Z,87.27
2024-02-06T05:29:28.176Z,87.37
2024-02-06T05:30:28.185Z,87.16
2024-02-06T05:31:28.196Z,87.37
2024-02-06T05:32:28.154Z,87.30
2024-02-06T05:33:28.150Z,87.27
2024-02-06T05:34:28.309Z,87.41
2024-02-06T05:35:28.107Z,87.51
2024-02-06T05:36:28.108Z,87.37
2024-02-06T05:37:28.129Z,87.41
2024-02-06T05:38:28.073Z,87.51
2024-02-06T05:39:28.068Z,87.51
2024-02-06T05:40:28.163Z,87.41
2024-02-06T05:41:28.040Z,87.20
2024-02-06T05:42:28.024Z,87.62
2024-02-06T05:43:28.130Z,87.72
2024-02-06T05:44:28.012Z,87.62
2024-02-06T05:45:28.003Z,87.66
2024-02-06T05:46:28.007Z,87.72
2024-02-06T05:47:28.074Z,87.62
2024-02-06T05:48:27.960Z,87.82
2024-02-06T05:49:28.077Z,87.66
2024-02-06T05:50:28.166Z,87.66
2024-02-06T05:51:27.939Z,87.76
2024-02-06T05:52:28.074Z,87.62
2024-02-06T05:53:27.905Z,87.62
2024-02-06T05:54:27.891Z,87.76
2024-02-06T05:55:27.944Z,87.14
2024-02-06T05:56:27.866Z,87.45
2024-02-06T05:57:27.920Z,87.55
2024-02-06T05:58:27.955Z,87.55
2024-02-06T05:59:27.840Z,87.55
2024-02-06T06:00:28.012Z,87.55
2024-02-06T06:01:27.946Z,87.55
2024-02-06T06:02:27.857Z,87.45
2024-02-06T06:03:27.849Z,87.45
2024-02-06T06:04:30.762Z,87.45
2024-02-06T06:05:27.912Z,87.35
2024-02-06T06:06:27.957Z,87.45
2024-02-06T06:07:27.938Z,87.45
2024-02-06T06:08:27.757Z,87.45
2024-02-06T06:09:27.780Z,87.55
2024-02-06T06:10:27.769Z,87.35
2024-02-06T06:11:27.718Z,87.14
2024-02-06T06:12:27.692Z,87.35
2024-02-06T06:13:27.870Z,87.59
2024-02-06T06:14:27.677Z,87.28
2024-02-06T06:15:27.702Z,87.14
2024-02-06T06:16:27.708Z,87.14
2024-02-06T06:17:27.638Z,87.45
2024-02-06T06:18:27.772Z,87.45
2024-02-06T06:19:27.766Z,87.24
2024-02-06T06:20:27.680Z,87.45
2024-02-06T06:21:27.615Z,87.45
2024-02-06T06:22:27.697Z,87.45
2024-02-06T06:23:27.579Z,87.45
2024-02-06T06:24:27.646Z,86.93
2024-02-06T06:25:27.608Z,87.24
2024-02-06T06:26:27.548Z,87.24
2024-02-06T06:27:27.539Z,87.14
2024-02-06T06:28:27.569Z,87.45
2024-02-06T06:29:28.467Z,87.24
2024-02-06T06:30:27.494Z,87.35
2024-02-06T06:31:27.526Z,87.35
2024-02-06T06:32:27.564Z,87.24
2024-02-06T06:33:27.614Z,87.35
2024-02-06T06:34:27.619Z,87.24
2024-02-06T06:35:27.457Z,87.35
2024-02-06T06:36:27.444Z,87.45
2024-02-06T06:37:27.465Z,87.45
2024-02-06T06:38:27.433Z,87.35
2024-02-06T06:39:27.398Z,87.45
2024-02-06T06:40:27.444Z,87.66
2024-02-06T06:41:27.468Z,87.45
2024-02-06T06:42:27.485Z,87.45
2024-02-06T06:43:30.380Z,87.51
2024-02-06T06:44:27.567Z,87.51
2024-02-06T06:45:27.326Z,87.51
2024-02-06T06:46:27.439Z,87.51
2024-02-06T06:47:27.343Z,87.51
2024-02-06T06:48:27.373Z,87.41
2024-02-06T06:49:27.424Z,87.51
2024-02-06T06:50:27.271Z,87.41
2024-02-06T06:51:27.266Z,87.72
2024-02-06T06:52:27.399Z,87.41
2024-02-06T06:53:27.291Z,87.41
2024-02-06T06:54:27.264Z,87.41
2024-02-06T06:55:27.280Z,87.41
2024-02-06T06:56:27.213Z,87.41
2024-02-06T06:57:27.213Z,87.27
2024-02-06T06:58:27.260Z,87.37
2024-02-06T06:59:27.181Z,87.27
2024-02-06T07:00:27.201Z,87.37
2024-02-06T07:01:27.298Z,87.16
2024-02-06T07:02:27.136Z,87.27
2024-02-06T07:03:27.164Z,87.12
2024-02-06T07:04:27.180Z,87.33
2024-02-06T07:05:27.126Z,87.33
2024-02-06T07:06:27.237Z,87.33
2024-02-06T07:07:27.162Z,87.33
2024-02-06T07:08:27.066Z,87.12
2024-02-06T07:09:27.054Z,87.64
2024-02-06T07:10:27.175Z,87.64
2024-02-06T07:11:27.030Z,87.64
2024-02-06T07:12:27.025Z,87.54
2024-02-06T07:13:27.048Z,87.54
2024-02-06T07:14:27.027Z,87.54
2024-02-06T07:15:26.988Z,87.64
2024-02-06T07:16:27.060Z,87.74
2024-02-06T07:17:27.003Z,87.64
2024-02-06T07:18:27.059Z,87.60
2024-02-06T07:19:27.056Z,87.64
2024-02-06T07:20:27.017Z,87.54
2024-02-06T07:21:26.940Z,87.64
2024-02-06T07:22:26.968Z,87.49
2024-02-06T07:23:26.896Z,87.64
2024-02-06T07:24:27.002Z,87.29
2024-02-06T07:25:26.907Z,87.29
2024-02-06T07:26:26.922Z,87.39
2024-02-06T07:27:26.849Z,87.29
2024-02-06T07:28:26.939Z,87.29
2024-02-06T07:29:26.843Z,87.29
2024-02-06T07:30:33.820Z,87.29
2024-02-06T07:31:27.942Z,87.15
2024-02-06T07:32:26.975Z,87.04
2024-02-06T07:33:26.862Z,87.04
2024-02-06T07:34:26.892Z,87.15
2024-02-06T07:35:26.871Z,87.35
2024-02-06T07:36:26.743Z,87.04
2024-02-06T07:37:26.847Z,86.94
2024-02-06T07:38:26.721Z,87.04
2024-02-06T07:39:26.719Z,87.00
2024-02-06T07:40:26.826Z,87.00
2024-02-06T07:41:26.688Z,87.00
2024-02-06T07:42:26.720Z,87.00
2024-02-06T07:43:26.755Z,87.10
2024-02-06T07:44:26.656Z,87.17
2024-02-06T07:45:26.689Z,86.96
2024-02-06T07:46:26.748Z,87.17
2024-02-06T07:47:26.673Z,87.17
2024-02-06T07:48:26.707Z,86.96
2024-02-06T07:49:26.722Z,87.17
2024-02-06T07:50:26.652Z,87.02
2024-02-06T07:51:26.595Z,87.27
2024-02-06T07:52:26.652Z,86.92
2024-02-06T07:53:26.555Z,87.02
2024-02-06T07:54:26.562Z,87.02
2024-02-06T07:55:26.614Z,87.13
2024-02-06T07:56:27.473Z,86.98
2024-02-06T07:57:26.517Z,87.13
2024-02-06T07:58:26.634Z,86.98
2024-02-06T07:59:26.502Z,87.19
2024-02-06T08:00:26.481Z,87.08
2024-02-06T08:01:26.559Z,86.98
2024-02-06T08:02:26.538Z,86.98
2024-02-06T08:03:26.444Z,86.88
2024-02-06T08:04:26.547Z,86.78
2024-02-06T08:05:27.488Z,87.15
2024-02-06T08:06:26.591Z,86.88
2024-02-06T08:07:27.699Z,86.84
2024-02-06T08:08:26.402Z,87.15
2024-02-06T08:09:26.406Z,86.94
2024-02-06T08:10:26.668Z,87.15
2024-02-06T08:11:27.315Z,86.84
2024-02-06T08:12:26.338Z,86.84
2024-02-06T08:13:26.425Z,87.15
2024-02-06T08:14:26.345Z,87.15
2024-02-06T08:15:26.324Z,86.74
2024-02-06T08:16:26.438Z,86.90
2024-02-06T08:17:26.323Z,86.90
2024-02-06T08:18:26.530Z,87.01
2024-02-06T08:19:26.410Z,86.80
2024-02-06T08:20:26.374Z,86.76
2024-02-06T08:21:26.283Z,86.87
2024-02-06T08:22:26.411Z,86.97
2024-02-06T08:23:26.256Z,86.97
2024-02-06T08:24:26.324Z,87.07
2024-02-06T08:25:26.256Z,87.07
2024-02-06T08:26:26.188Z,87.07
2024-02-06T08:27:26.177Z,86.93
2024-02-06T08:28:26.229Z,86.93
2024-02-06T08:29:26.163Z,86.93
2024-02-06T08:30:26.174Z,86.72
2024-02-06T08:31:26.153Z,86.82
2024-02-06T08:32:26.123Z,86.82
2024-02-06T08:33:26.243Z,86.93
2024-02-06T08:34:26.122Z,86.72
2024-02-06T08:35:26.176Z,86.93
2024-02-06T08:36:26.243Z,86.99
2024-02-06T08:37:26.146Z,86.93
2024-02-06T08:38:26.145Z,86.58
2024-02-06T08:39:26.081Z,86.88
2024-02-06T08:40:26.202Z,86.88
2024-02-06T08:41:26.011Z,86.79
2024-02-06T08:42:26.007Z,86.79
2024-02-06T08:43:28.606Z,86.79
2024-02-06T08:44:26.045Z,86.88
2024-02-06T08:45:25.976Z,86.64
2024-02-06T08:46:26.083Z,86.79
2024-02-06T08:47:25.944Z,86.58
2024-02-06T08:48:26.100Z,86.58
2024-02-06T08:49:26.122Z,86.64
2024-02-06T08:50:25.968Z,86.85
2024-02-06T08:51:25.906Z,86.64
2024-02-06T08:52:26.108Z,86.95
2024-02-06T08:53:25.882Z,86.95
2024-02-06T08:54:25.909Z,86.91
2024-02-06T08:55:25.868Z,87.12
2024-02-06T08:56:25.849Z,86.80
2024-02-06T08:57:25.836Z,86.87
2024-02-06T08:58:26.875Z,86.87
2024-02-06T08:59:25.832Z,86.87
2024-02-06T09:00:25.814Z,86.87
2024-02-06T09:01:25.940Z,86.77
2024-02-06T09:02:25.928Z,86.77
2024-02-06T09:03:25.766Z,86.87
2024-02-06T09:04:25.870Z,86.72
2024-02-06T09:05:25.995Z,86.72
2024-02-06T09:06:25.927Z,86.68
2024-02-06T09:07:27.326Z,86.68
2024-02-06T09:08:26.381Z,86.68
2024-02-06T09:09:26.251Z,86.68
2024-02-06T09:10:26.757Z,86.54
2024-02-06T09:11:25.677Z,86.65
2024-02-06T09:12:25.662Z,86.65
2024-02-06T09:13:26.266Z,86.65
2024-02-06T09:14:27.260Z,86.65
2024-02-06T09:15:25.644Z,86.75
2024-02-06T09:16:25.691Z,86.65
2024-02-06T09:17:25.645Z,86.65
2024-02-06T09:18:25.771Z,86.65
2024-02-06T09:19:25.673Z,86.60
2024-02-06T09:20:25.598Z,86.40
2024-02-06T09:21:25.602Z,86.50
2024-02-06T09:22:25.697Z,86.40
2024-02-06T09:23:25.551Z,86.36
2024-02-06T09:24:25.561Z,86.66
2024-02-06T09:25:25.556Z,86.57
2024-02-06T09:26:25.518Z,86.91
2024-02-06T09:27:25.520Z,86.87
2024-02-06T09:28:25.579Z,86.57
2024-02-06T09:29:25.484Z,86.57
2024-02-06T09:30:25.536Z,86.15
2024-02-06T09:31:26.053Z,86.87
2024-02-06T09:32:25.446Z,86.77
2024-02-06T09:33:26.471Z,86.87
2024-02-06T09:34:26.284Z,86.87
2024-02-06T09:35:25.534Z,86.77
2024-02-06T09:36:25.398Z,86.93
2024-02-06T09:37:25.436Z,86.98
2024-02-06T09:38:25.362Z,86.83
2024-02-06T09:39:25.353Z,85.95
2024-02-06T09:40:25.425Z,86.05
2024-02-06T09:41:25.336Z,86.93
2024-02-06T09:42:25.899Z,86.98
2024-02-06T09:43:25.409Z,86.77
2024-02-06T09:44:25.314Z,86.57
2024-02-06T09:45:25.308Z,86.15
2024-02-06T09:46:25.361Z,86.36
2024-02-06T09:47:25.294Z,86.87
2024-02-06T09:48:25.474Z,86.42
2024-02-06T09:49:25.360Z,86.63
2024-02-06T09:50:25.254Z,86.63
2024-02-06T09:51:25.218Z,86.63
2024-02-06T09:52:25.265Z,86.52
2024-02-06T09:53:25.196Z,86.52
2024-02-06T09:54:25.201Z,86.48
2024-02-06T09:55:25.269Z,86.48
2024-02-06T09:56:25.201Z,86.44
2024-02-06T09:57:25.185Z,86.44
2024-02-06T09:58:25.257Z,86.44
2024-02-06T09:59:25.128Z,86.34
2024-02-06T10:00:25.154Z,86.44
2024-02-06T10:01:25.220Z,86.51
2024-02-06T10:02:25.142Z,86.61
2024-02-06T10:03:25.079Z,86.46
2024-02-06T10:04:25.224Z,86.46
2024-02-06T10:05:25.189Z,86.63
2024-02-06T10:07:40.373Z,85.40
2024-02-06T10:08:40.258Z,85.71
2024-02-06T10:09:40.276Z,85.81
2024-02-06T10:10:40.281Z,86.63
2024-02-06T10:11:40.210Z,86.73
2024-02-06T10:12:40.199Z,86.53
2024-02-06T10:13:40.308Z,86.18
2024-02-06T10:14:40.175Z,86.29
2024-02-06T10:15:40.199Z,86.24
2024-02-06T10:16:40.268Z,86.29
2024-02-06T10:17:40.147Z,86.35
2024-02-06T10:18:40.160Z,86.35
2024-02-06T10:19:40.283Z,86.44
2024-02-06T10:20:40.119Z,86.44
2024-02-06T10:21:40.104Z,86.35
2024-02-06T10:22:40.137Z,86.65
2024-02-06T10:23:40.146Z,86.35
2024-02-06T10:24:40.066Z,86.51
2024-02-06T10:25:40.096Z,86.41
2024-02-06T10:26:40.196Z,86.51
2024-02-06T10:27:40.082Z,86.30
2024-02-06T10:28:40.039Z,86.51
2024-02-06T10:29:40.044Z,86.30
2024-02-06T10:30:39.994Z,86.51
2024-02-06T10:31:40.404Z,86.41
2024-02-06T10:32:40.008Z,86.41
2024-02-06T10:33:41.264Z,86.26
2024-02-06T10:34:40.048Z,86.36
2024-02-06T10:35:40.013Z,86.36
2024-02-06T10:36:39.924Z,86.06
2024-02-06T10:37:40.057Z,86.06
2024-02-06T10:38:39.907Z,86.06
2024-02-06T10:39:39.929Z,86.26
2024-02-06T10:40:39.934Z,86.26
2024-02-06T10:42:00.194Z,86.22
2024-02-06T10:43:24.445Z,86.12
2024-02-06T10:43:46.145Z,86.22
2024-02-06T10:44:40.925Z,86.33
2024-02-06T10:45:39.831Z,85.77
2024-02-06T10:46:39.890Z,86.08
2024-02-06T10:47:40.852Z,85.94
2024-02-06T10:48:39.846Z,86.15
2024-02-06T10:49:39.889Z,86.15
2024-02-06T10:50:39.966Z,85.84
2024-02-06T10:51:39.803Z,86.04
2024-02-06T10:52:39.773Z,85.74
2024-02-06T10:53:39.747Z,85.84
2024-02-06T10:54:39.726Z,85.84
2024-02-06T10:55:39.843Z,85.94
2024-02-06T10:56:39.873Z,85.94
2024-02-06T10:57:39.735Z,85.94
2024-02-06T10:58:40.719Z,86.04
2024-02-06T10:59:40.559Z,85.94
2024-02-06T11:00:39.739Z,85.94
2024-02-06T11:01:39.723Z,85.94
2024-02-06T11:02:39.684Z,86.04
2024-02-06T11:03:39.728Z,86.04
2024-02-06T11:04:39.732Z,86.04
2024-02-06T11:05:39.620Z,86.15
2024-02-06T11:06:39.742Z,86.24
2024-02-06T11:07:39.598Z,85.94
2024-02-06T11:08:39.599Z,85.90
2024-02-06T11:09:39.550Z,86.15
2024-02-06T11:10:39.638Z,86.30
2024-02-06T11:11:39.606Z,86.00
2024-02-06T11:12:39.525Z,86.10
2024-02-06T11:13:39.681Z,85.80
2024-02-06T11:14:39.668Z,85.80
2024-02-06T11:15:39.495Z,85.90
2024-02-06T11:16:40.136Z,85.66
2024-02-06T11:17:39.516Z,85.66
2024-02-06T11:18:39.472Z,85.75
2024-02-06T11:19:39.530Z,86.02
2024-02-06T11:20:39.445Z,85.75
2024-02-06T11:21:39.440Z,85.72
2024-02-06T11:22:39.592Z,85.72
2024-02-06T11:23:39.421Z,85.61
2024-02-06T11:24:39.392Z,85.72
2024-02-06T11:25:39.407Z,85.68
2024-02-06T11:26:39.396Z,86.08
2024-02-06T11:27:39.388Z,85.78
2024-02-06T11:28:39.362Z,85.78
2024-02-06T11:29:39.389Z,85.88
2024-02-06T11:30:39.336Z,85.78
2024-02-06T11:31:39.385Z,85.88
2024-02-06T11:32:39.363Z,85.74
2024-02-06T11:33:39.649Z,85.84
2024-02-06T11:34:39.367Z,85.64
2024-02-06T11:35:39.261Z,85.74
2024-02-06T11:36:40.014Z,85.64
2024-02-06T11:37:39.539Z,85.64
2024-02-06T11:38:39.382Z,85.53
2024-02-06T11:39:39.224Z,85.74
2024-02-06T11:40:39.278Z,85.94
2024-02-06T11:41:39.194Z,85.64
2024-02-06T11:42:39.201Z,85.94
2024-02-06T11:43:39.279Z,85.84
2024-02-06T11:44:39.210Z,85.84
2024-02-06T11:45:40.261Z,85.53
2024-02-06T11:46:39.182Z,85.64
2024-02-06T11:47:39.141Z,85.74
2024-02-06T11:48:39.154Z,85.94
2024-02-06T11:49:39.341Z,86.15
2024-02-06T11:50:39.301Z,85.74
2024-02-06T11:51:39.084Z,85.53
2024-02-06T11:52:39.184Z,85.64
2024-02-06T11:53:39.077Z,85.74
2024-02-06T11:54:39.054Z,86.15
2024-02-06T11:55:39.197Z,86.15
2024-02-06T11:56:39.043Z,86.04
2024-02-06T11:57:39.075Z,85.53
2024-02-06T11:58:39.108Z,85.84
2024-02-06T11:59:39.040Z,85.94
2024-02-06T12:00:38.993Z,85.94
2024-02-06T12:01:41.758Z,85.84
2024-02-06T12:02:39.198Z,86.04
2024-02-06T12:03:38.955Z,86.04
2024-02-06T12:04:39.117Z,86.04
2024-02-06T12:05:41.156Z,85.84
2024-02-06T12:06:39.013Z,85.84
2024-02-06T12:07:39.128Z,85.94
2024-02-06T12:08:38.982Z,86.04
2024-02-06T12:09:38.935Z,85.94
2024-02-06T12:10:38.928Z,85.84
2024-02-06T12:11:38.863Z,85.80
2024-02-06T12:12:38.844Z,85.49
2024-02-06T12:13:38.879Z,85.29
2024-02-06T12:14:38.832Z,85.29
2024-02-06T12:15:38.832Z,86.07
2024-02-06T12:16:38.852Z,85.66
2024-02-06T12:17:39.033Z,85.76
2024-02-06T12:18:38.811Z,85.86
2024-02-06T12:19:38.978Z,85.55
2024-02-06T12:20:38.856Z,85.55
2024-02-06T12:21:38.751Z,85.55
2024-02-06T12:22:38.806Z,85.52
2024-02-06T12:23:38.740Z,85.52
2024-02-06T12:24:38.714Z,85.66
2024-02-06T12:25:38.786Z,85.72
2024-02-06T12:26:38.706Z,85.52
2024-02-06T12:27:38.687Z,85.55
2024-02-06T12:28:38.722Z,85.52
2024-02-06T12:29:38.662Z,86.02
2024-02-06T12:30:38.760Z,86.02
2024-02-06T12:31:38.779Z,85.92
2024-02-06T12:32:38.732Z,85.92
2024-02-06T12:33:38.785Z,85.92
2024-02-06T12:34:38.867Z,85.62
2024-02-06T12:35:38.605Z,85.82
2024-02-06T12:36:38.582Z,85.72
2024-02-06T12:37:38.619Z,85.62
2024-02-06T12:38:39.549Z,85.72
2024-02-06T12:39:38.547Z,85.52
2024-02-06T12:40:38.642Z,85.82
2024-02-06T12:41:38.590Z,85.62
2024-02-06T12:42:38.529Z,85.82
2024-02-06T12:43:38.537Z,85.72
2024-02-06T12:44:48.243Z,85.62
2024-02-06T12:45:39.474Z,85.52
2024-02-06T12:46:38.511Z,85.41
2024-02-06T12:47:38.539Z,85.52
2024-02-06T12:48:38.449Z,85.55
2024-02-06T12:49:39.535Z,85.52
2024-02-06T12:50:38.792Z,85.52
2024-02-06T12:51:38.406Z,85.52
2024-02-06T12:52:38.563Z,85.66
2024-02-06T12:53:39.021Z,85.62